»·PEaware :: WAT234 KTVL-KMRY

WAT234 :: KTVL-KMRY

FLIGHT INFORMATION

Flight Status: Arrived
Operator:
Walker Air Transport
More flights by this operator :: More flights under this callsign
Pilot: Eduardo Elias G. (24838)
Aircraft: SOCATA TBM-900
(TBM9)
More flights by this aircraft type
Origin: KTVL Lake Tahoe
United States
Destination: KMRY Monterey Peninsula
United States
More flights between these airports :: More routes between these airports
Route: RICHY6 SPOOK V113 MOD SNS
File this flight plan on PilotEdge
Remarks:
Altitude:
(Current/Filed)
20,000ft
Speed:
(Current/Filed)
310kts
Departed: 31-Aug-20 09:28 PM
Arrived: 31-Aug-20 10:15 PM
Distance/Time
Traveled:
164nm/0:47
Distance/Time
To Go:
Arrived

Flight Plot

Page will automatically refresh every two minutes.

Flight plan parsing failed; only flown route is shown


Map Options




Map Legend


Flown Route
Filed Route
Departure Airport
Arrival Airport
Navaid (VOR, NDB)
Fix

Horizontal Profiles

Position Reports

Time Latitude Longitude Heading Altitude Ground
Speed
31-Aug-20 20:57 38.893696 -119.997129 282 6237ft 0kts
31-Aug-20 20:58 38.893696 -119.997129 282 6237ft 0kts
31-Aug-20 20:59 38.893696 -119.997129 282 6237ft 0kts
31-Aug-20 21:00 38.893696 -119.997128 282 6237ft 0kts
31-Aug-20 21:01 38.893696 -119.997128 282 6237ft 0kts
31-Aug-20 21:02 38.893696 -119.997128 282 6237ft 0kts
31-Aug-20 21:03 38.893696 -119.997128 282 6237ft 0kts
31-Aug-20 21:04 38.893696 -119.997128 282 6237ft 0kts
31-Aug-20 21:05 38.893696 -119.997128 282 6237ft 0kts
31-Aug-20 21:06 38.893696 -119.997128 282 6237ft 0kts
31-Aug-20 21:07 38.893696 -119.997128 282 6237ft 0kts
31-Aug-20 21:08 38.893696 -119.997128 282 6237ft 0kts
31-Aug-20 21:09 38.893696 -119.997128 282 6237ft 0kts
31-Aug-20 21:10 38.893696 -119.997128 282 6237ft 0kts
31-Aug-20 21:11 38.893696 -119.997128 282 6237ft 0kts
31-Aug-20 21:12 38.893696 -119.997128 282 6237ft 0kts
31-Aug-20 21:13 38.893696 -119.997128 282 6237ft 0kts
31-Aug-20 21:14 38.893696 -119.997128 282 6237ft 0kts
31-Aug-20 21:15 38.893696 -119.997128 282 6237ft 0kts
31-Aug-20 21:16 38.893696 -119.997128 282 6237ft 0kts
31-Aug-20 21:17 38.893696 -119.997129 282 6237ft 0kts
31-Aug-20 21:18 38.893696 -119.997129 282 6237ft 0kts
31-Aug-20 21:19 38.893696 -119.997129 282 6237ft 0kts
31-Aug-20 21:20 38.893696 -119.997129 282 6237ft 0kts
31-Aug-20 21:21 38.893696 -119.997129 282 6237ft 0kts
31-Aug-20 21:22 38.893061 -119.997290 192 6237ft 10kts
31-Aug-20 21:23 38.889945 -119.997487 193 6237ft 21kts
31-Aug-20 21:24 38.884477 -119.999088 192 6237ft 23kts
31-Aug-20 21:25 38.882734 -119.999637 114 6237ft 0kts
31-Aug-20 21:26 38.882656 -119.999239 100 6237ft 8kts
31-Aug-20 21:27 38.891460 -119.996129 10 6286ft 124kts
31-Aug-20 21:28 38.928718 -120.001657 343 8413ft 145kts
31-Aug-20 21:29 38.965786 -120.012738 343 10831ft 134kts
31-Aug-20 21:30 39.005263 -120.025693 343 12091ft 185kts
31-Aug-20 21:31 39.012035 -120.067690 200 13842ft 214kts
31-Aug-20 21:32 38.956268 -120.098071 208 15803ft 213kts
31-Aug-20 21:33 38.899341 -120.135180 209 17429ft 226kts
31-Aug-20 21:34 38.841802 -120.173081 209 19193ft 238kts
31-Aug-20 21:35 38.779095 -120.214358 208 20244ft 282kts
31-Aug-20 21:36 38.704425 -120.263339 208 20225ft 318kts
31-Aug-20 21:37 38.622401 -120.317055 208 20220ft 326kts
31-Aug-20 21:38 38.538454 -120.371889 208 20220ft 329kts
31-Aug-20 21:39 38.454056 -120.426870 208 20220ft 329kts
31-Aug-20 21:40 38.370609 -120.481098 208 20221ft 329kts
31-Aug-20 21:41 38.286043 -120.535892 207 20222ft 329kts
31-Aug-20 21:42 38.197300 -120.593247 208 20223ft 329kts
31-Aug-20 21:43 38.110869 -120.648955 207 20223ft 329kts
31-Aug-20 21:44 38.025586 -120.703779 207 19993ft 337kts
31-Aug-20 21:46 37.942740 -120.756897 206 19903ft 331kts
31-Aug-20 21:47 37.856995 -120.811732 206 19866ft 327kts
31-Aug-20 21:48 37.769961 -120.867234 206 19148ft 339kts
31-Aug-20 21:49 37.682717 -120.922729 206 17602ft 341kts
31-Aug-20 21:50 37.594324 -120.980306 208 16012ft 337kts
31-Aug-20 21:51 37.508239 -121.038673 208 14868ft 316kts
31-Aug-20 21:52 37.429512 -121.091929 208 14919ft 295kts
31-Aug-20 21:53 37.354590 -121.142481 208 14953ft 292kts
31-Aug-20 21:54 37.280021 -121.192682 208 14968ft 292kts
31-Aug-20 21:55 37.205351 -121.242833 208 14984ft 292kts
31-Aug-20 21:56 37.127579 -121.294935 208 13676ft 312kts
31-Aug-20 21:57 37.045053 -121.350106 208 12062ft 310kts
31-Aug-20 21:58 36.965533 -121.403153 208 10480ft 305kts
31-Aug-20 21:59 36.889145 -121.453958 208 8929ft 297kts
31-Aug-20 22:00 36.814169 -121.503729 208 7366ft 293kts
31-Aug-20 22:01 36.739968 -121.552867 209 5796ft 284kts
31-Aug-20 22:02 36.667204 -121.602319 223 4974ft 255kts
31-Aug-20 22:02 36.645877 -121.673462 271 4991ft 249kts
31-Aug-20 22:04 36.630237 -121.777454 263 5000ft 250kts
31-Aug-20 22:05 36.635825 -121.868502 274 4400ft 254kts
31-Aug-20 22:05 36.640478 -121.944434 274 3608ft 251kts
31-Aug-20 22:07 36.638591 -122.040282 246 3593ft 203kts
31-Aug-20 22:08 36.619630 -122.107361 288 2740ft 202kts
31-Aug-20 22:08 36.653461 -122.103972 78 2589ft 191kts
31-Aug-20 22:09 36.646239 -122.036084 96 2164ft 198kts
31-Aug-20 22:10 36.630750 -121.973531 112 1680ft 159kts
31-Aug-20 22:11 36.615037 -121.927219 112 1419ft 139kts
31-Aug-20 22:12 36.601456 -121.886607 112 629ft 111kts
31-Aug-20 22:13 36.589251 -121.851033 113 178ft 95kts
31-Aug-20 22:14 36.585004 -121.841437 255 170ft 0kts
31-Aug-20 22:15 36.586285 -121.845173 279 170ft 4kts
31-Aug-20 22:16 36.585682 -121.846387 107 170ft 0kts
31-Aug-20 22:17 36.585682 -121.846387 107 170ft 0kts

Navigation Log

Ident Type
Flight plan parsing failed, navigation log unavailable